sensor_id;sensor_type;location;lat;lon;timestamp;P1;durP1;ratioP1;P2;durP2;ratioP2
58581;SDS011;44361;51.476;5.700;2023-04-09T00:01:08;37.15;;;20.00;;
58581;SDS011;44361;51.476;5.700;2023-04-09T00:03:35;37.65;;;19.80;;
58581;SDS011;44361;51.476;5.700;2023-04-09T00:06:01;40.17;;;20.02;;
58581;SDS011;44361;51.476;5.700;2023-04-09T00:08:27;33.72;;;19.13;;
58581;SDS011;44361;51.476;5.700;2023-04-09T00:10:53;32.40;;;18.20;;
58581;SDS011;44361;51.476;5.700;2023-04-09T00:13:19;36.78;;;19.17;;
58581;SDS011;44361;51.476;5.700;2023-04-09T00:15:45;38.20;;;20.27;;
58581;SDS011;44361;51.476;5.700;2023-04-09T00:18:11;35.40;;;19.20;;
58581;SDS011;44361;51.476;5.700;2023-04-09T00:20:37;35.42;;;18.83;;
58581;SDS011;44361;51.476;5.700;2023-04-09T00:23:02;36.78;;;19.48;;
58581;SDS011;44361;51.476;5.700;2023-04-09T00:25:28;34.45;;;19.15;;
58581;SDS011;44361;51.476;5.700;2023-04-09T00:27:54;37.65;;;19.05;;
58581;SDS011;44361;51.476;5.700;2023-04-09T00:30:20;35.65;;;19.33;;
58581;SDS011;44361;51.476;5.700;2023-04-09T00:32:45;37.47;;;18.55;;
58581;SDS011;44361;51.476;5.700;2023-04-09T00:35:11;41.10;;;20.48;;
58581;SDS011;44361;51.476;5.700;2023-04-09T00:37:37;38.00;;;18.92;;
58581;SDS011;44361;51.476;5.700;2023-04-09T00:40:03;35.53;;;19.13;;
58581;SDS011;44361;51.476;5.700;2023-04-09T00:42:33;33.67;;;19.33;;
58581;SDS011;44361;51.476;5.700;2023-04-09T00:44:59;37.60;;;19.95;;
58581;SDS011;44361;51.476;5.700;2023-04-09T00:47:25;37.45;;;20.08;;
58581;SDS011;44361;51.476;5.700;2023-04-09T00:49:52;37.38;;;20.73;;
58581;SDS011;44361;51.476;5.700;2023-04-09T00:52:18;38.72;;;21.77;;
58581;SDS011;44361;51.476;5.700;2023-04-09T00:54:45;43.72;;;22.55;;
58581;SDS011;44361;51.476;5.700;2023-04-09T00:57:11;40.45;;;21.40;;
58581;SDS011;44361;51.476;5.700;2023-04-09T00:59:37;43.33;;;22.58;;
58581;SDS011;44361;51.476;5.700;2023-04-09T01:02:02;46.17;;;22.92;;
58581;SDS011;44361;51.476;5.700;2023-04-09T01:04:28;42.53;;;21.77;;
58581;SDS011;44361;51.476;5.700;2023-04-09T01:07:15;51.80;;;23.90;;
58581;SDS011;44361;51.476;5.700;2023-04-09T01:09:49;45.38;;;24.15;;
58581;SDS011;44361;51.476;5.700;2023-04-09T01:12:32;47.15;;;24.67;;
58581;SDS011;44361;51.476;5.700;2023-04-09T01:17:56;44.88;;;24.27;;
58581;SDS011;44361;51.476;5.700;2023-04-09T01:20:29;47.72;;;25.30;;
58581;SDS011;44361;51.476;5.700;2023-04-09T01:23:18;52.08;;;25.05;;
58581;SDS011;44361;51.476;5.700;2023-04-09T01:28:32;52.40;;;26.42;;
58581;SDS011;44361;51.476;5.700;2023-04-09T01:31:03;51.92;;;26.40;;
58581;SDS011;44361;51.476;5.700;2023-04-09T01:33:35;54.50;;;25.40;;
58581;SDS011;44361;51.476;5.700;2023-04-09T01:36:03;51.35;;;25.83;;
58581;SDS011;44361;51.476;5.700;2023-04-09T01:38:30;57.03;;;26.30;;
58581;SDS011;44361;51.476;5.700;2023-04-09T01:40:56;54.75;;;26.83;;
58581;SDS011;44361;51.476;5.700;2023-04-09T01:43:24;53.03;;;26.92;;
58581;SDS011;44361;51.476;5.700;2023-04-09T01:45:51;51.42;;;26.63;;
58581;SDS011;44361;51.476;5.700;2023-04-09T01:48:18;53.30;;;27.00;;
58581;SDS011;44361;51.476;5.700;2023-04-09T01:50:44;47.78;;;25.45;;
58581;SDS011;44361;51.476;5.700;2023-04-09T01:53:10;53.13;;;26.42;;
58581;SDS011;44361;51.476;5.700;2023-04-09T01:55:36;55.05;;;26.60;;
58581;SDS011;44361;51.476;5.700;2023-04-09T01:58:02;53.78;;;26.90;;
58581;SDS011;44361;51.476;5.700;2023-04-09T02:00:30;54.22;;;26.40;;
58581;SDS011;44361;51.476;5.700;2023-04-09T02:08:36;52.72;;;25.38;;
58581;SDS011;44361;51.476;5.700;2023-04-09T02:11:03;54.60;;;27.92;;
58581;SDS011;44361;51.476;5.700;2023-04-09T02:13:30;57.67;;;27.15;;
58581;SDS011;44361;51.476;5.700;2023-04-09T02:15:57;57.95;;;27.65;;
58581;SDS011;44361;51.476;5.700;2023-04-09T02:18:24;52.97;;;25.70;;
58581;SDS011;44361;51.476;5.700;2023-04-09T02:20:57;54.08;;;26.08;;
58581;SDS011;44361;51.476;5.700;2023-04-09T02:23:23;55.65;;;26.85;;
58581;SDS011;44361;51.476;5.700;2023-04-09T02:25:50;57.20;;;26.45;;
58581;SDS011;44361;51.476;5.700;2023-04-09T02:28:17;55.22;;;25.90;;
58581;SDS011;44361;51.476;5.700;2023-04-09T02:30:42;55.83;;;26.70;;
58581;SDS011;44361;51.476;5.700;2023-04-09T02:33:08;53.28;;;26.27;;
58581;SDS011;44361;51.476;5.700;2023-04-09T02:35:33;53.58;;;27.58;;
58581;SDS011;44361;51.476;5.700;2023-04-09T02:37:59;55.88;;;26.67;;
58581;SDS011;44361;51.476;5.700;2023-04-09T02:40:25;52.80;;;25.77;;
58581;SDS011;44361;51.476;5.700;2023-04-09T02:42:51;55.50;;;25.63;;
58581;SDS011;44361;51.476;5.700;2023-04-09T02:45:17;50.15;;;25.67;;
58581;SDS011;44361;51.476;5.700;2023-04-09T02:47:43;52.58;;;25.70;;
58581;SDS011;44361;51.476;5.700;2023-04-09T02:50:08;51.72;;;25.25;;
58581;SDS011;44361;51.476;5.700;2023-04-09T02:52:34;53.33;;;26.05;;
58581;SDS011;44361;51.476;5.700;2023-04-09T02:55:00;52.85;;;26.10;;
58581;SDS011;44361;51.476;5.700;2023-04-09T02:57:25;57.33;;;26.08;;
58581;SDS011;44361;51.476;5.700;2023-04-09T02:59:51;54.30;;;24.42;;
58581;SDS011;44361;51.476;5.700;2023-04-09T03:02:17;53.83;;;25.00;;
58581;SDS011;44361;51.476;5.700;2023-04-09T03:04:42;52.00;;;23.60;;
58581;SDS011;44361;51.476;5.700;2023-04-09T03:07:08;48.78;;;23.63;;
58581;SDS011;44361;51.476;5.700;2023-04-09T03:09:34;53.33;;;23.63;;
58581;SDS011;44361;51.476;5.700;2023-04-09T03:11:59;48.83;;;24.13;;
58581;SDS011;44361;51.476;5.700;2023-04-09T03:14:26;50.50;;;23.50;;
58581;SDS011;44361;51.476;5.700;2023-04-09T03:16:51;50.53;;;23.60;;
58581;SDS011;44361;51.476;5.700;2023-04-09T03:19:17;51.80;;;23.52;;
58581;SDS011;44361;51.476;5.700;2023-04-09T03:21:42;47.65;;;22.73;;
58581;SDS011;44361;51.476;5.700;2023-04-09T03:24:08;50.40;;;22.85;;
58581;SDS011;44361;51.476;5.700;2023-04-09T03:26:33;48.03;;;22.40;;
58581;SDS011;44361;51.476;5.700;2023-04-09T03:29:02;44.92;;;22.70;;
58581;SDS011;44361;51.476;5.700;2023-04-09T03:31:28;47.80;;;21.65;;
58581;SDS011;44361;51.476;5.700;2023-04-09T03:33:54;44.15;;;20.70;;
58581;SDS011;44361;51.476;5.700;2023-04-09T03:36:19;47.90;;;22.70;;
58581;SDS011;44361;51.476;5.700;2023-04-09T03:38:45;46.53;;;20.58;;
58581;SDS011;44361;51.476;5.700;2023-04-09T03:41:10;45.83;;;21.15;;
58581;SDS011;44361;51.476;5.700;2023-04-09T03:43:36;49.85;;;22.65;;
58581;SDS011;44361;51.476;5.700;2023-04-09T03:46:09;45.35;;;21.52;;
58581;SDS011;44361;51.476;5.700;2023-04-09T03:48:40;48.25;;;22.38;;
58581;SDS011;44361;51.476;5.700;2023-04-09T03:51:10;46.00;;;21.75;;
58581;SDS011;44361;51.476;5.700;2023-04-09T03:53:37;43.55;;;20.10;;
58581;SDS011;44361;51.476;5.700;2023-04-09T03:56:02;46.90;;;20.67;;
58581;SDS011;44361;51.476;5.700;2023-04-09T03:58:28;44.45;;;21.33;;
58581;SDS011;44361;51.476;5.700;2023-04-09T04:00:53;44.72;;;21.52;;
58581;SDS011;44361;51.476;5.700;2023-04-09T04:03:19;48.08;;;21.58;;
58581;SDS011;44361;51.476;5.700;2023-04-09T04:05:45;47.30;;;21.08;;
58581;SDS011;44361;51.476;5.700;2023-04-09T04:08:10;47.13;;;21.15;;
58581;SDS011;44361;51.476;5.700;2023-04-09T04:10:36;45.13;;;20.88;;
58581;SDS011;44361;51.476;5.700;2023-04-09T04:13:01;53.58;;;22.42;;
58581;SDS011;44361;51.476;5.700;2023-04-09T04:15:27;55.45;;;22.20;;
58581;SDS011;44361;51.476;5.700;2023-04-09T04:17:53;51.90;;;23.17;;
58581;SDS011;44361;51.476;5.700;2023-04-09T04:20:19;52.75;;;22.98;;
58581;SDS011;44361;51.476;5.700;2023-04-09T04:22:44;54.97;;;23.02;;
58581;SDS011;44361;51.476;5.700;2023-04-09T04:25:10;53.60;;;22.27;;
58581;SDS011;44361;51.476;5.700;2023-04-09T04:27:35;51.42;;;22.90;;
58581;SDS011;44361;51.476;5.700;2023-04-09T04:30:01;52.50;;;23.88;;
58581;SDS011;44361;51.476;5.700;2023-04-09T04:32:27;50.80;;;22.40;;
58581;SDS011;44361;51.476;5.700;2023-04-09T04:34:52;53.08;;;24.52;;
58581;SDS011;44361;51.476;5.700;2023-04-09T04:37:18;53.95;;;23.35;;
58581;SDS011;44361;51.476;5.700;2023-04-09T04:39:44;50.03;;;22.58;;
58581;SDS011;44361;51.476;5.700;2023-04-09T04:42:09;52.10;;;22.77;;
58581;SDS011;44361;51.476;5.700;2023-04-09T04:44:35;50.95;;;24.05;;
58581;SDS011;44361;51.476;5.700;2023-04-09T04:47:00;55.08;;;23.63;;
58581;SDS011;44361;51.476;5.700;2023-04-09T04:49:26;53.55;;;23.17;;
58581;SDS011;44361;51.476;5.700;2023-04-09T04:51:51;54.15;;;22.95;;
58581;SDS011;44361;51.476;5.700;2023-04-09T04:54:17;54.50;;;22.85;;
58581;SDS011;44361;51.476;5.700;2023-04-09T04:56:42;55.90;;;23.77;;
58581;SDS011;44361;51.476;5.700;2023-04-09T04:59:08;53.58;;;23.27;;
58581;SDS011;44361;51.476;5.700;2023-04-09T05:01:33;56.58;;;23.67;;
58581;SDS011;44361;51.476;5.700;2023-04-09T05:03:59;56.65;;;23.95;;
58581;SDS011;44361;51.476;5.700;2023-04-09T05:06:27;53.90;;;23.60;;
58581;SDS011;44361;51.476;5.700;2023-04-09T05:08:53;49.35;;;22.27;;
58581;SDS011;44361;51.476;5.700;2023-04-09T05:11:22;52.42;;;23.27;;
58581;SDS011;44361;51.476;5.700;2023-04-09T05:13:48;55.33;;;23.63;;
58581;SDS011;44361;51.476;5.700;2023-04-09T05:16:15;55.13;;;23.73;;
58581;SDS011;44361;51.476;5.700;2023-04-09T05:18:42;55.10;;;24.52;;
58581;SDS011;44361;51.476;5.700;2023-04-09T05:21:07;55.83;;;24.50;;
58581;SDS011;44361;51.476;5.700;2023-04-09T05:23:33;56.42;;;23.77;;
58581;SDS011;44361;51.476;5.700;2023-04-09T05:25:58;63.90;;;25.05;;
58581;SDS011;44361;51.476;5.700;2023-04-09T05:28:24;57.10;;;23.60;;
58581;SDS011;44361;51.476;5.700;2023-04-09T05:30:50;58.25;;;25.30;;
58581;SDS011;44361;51.476;5.700;2023-04-09T05:33:15;59.83;;;25.17;;
58581;SDS011;44361;51.476;5.700;2023-04-09T05:35:41;53.65;;;23.58;;
58581;SDS011;44361;51.476;5.700;2023-04-09T05:38:06;61.72;;;25.00;;
58581;SDS011;44361;51.476;5.700;2023-04-09T05:40:32;60.00;;;24.77;;
58581;SDS011;44361;51.476;5.700;2023-04-09T05:42:59;60.10;;;25.25;;
58581;SDS011;44361;51.476;5.700;2023-04-09T05:45:24;57.47;;;24.40;;
58581;SDS011;44361;51.476;5.700;2023-04-09T05:47:52;53.47;;;23.95;;
58581;SDS011;44361;51.476;5.700;2023-04-09T05:50:18;57.80;;;23.42;;
58581;SDS011;44361;51.476;5.700;2023-04-09T05:52:43;54.20;;;24.83;;
58581;SDS011;44361;51.476;5.700;2023-04-09T05:55:09;55.13;;;24.55;;
58581;SDS011;44361;51.476;5.700;2023-04-09T05:57:34;49.92;;;23.55;;
58581;SDS011;44361;51.476;5.700;2023-04-09T06:00:00;54.47;;;24.15;;
58581;SDS011;44361;51.476;5.700;2023-04-09T06:02:26;53.50;;;24.13;;
58581;SDS011;44361;51.476;5.700;2023-04-09T06:04:52;48.33;;;23.10;;
58581;SDS011;44361;51.476;5.700;2023-04-09T06:07:17;50.97;;;23.75;;
58581;SDS011;44361;51.476;5.700;2023-04-09T06:09:43;52.63;;;23.83;;
58581;SDS011;44361;51.476;5.700;2023-04-09T06:12:09;51.70;;;22.83;;
58581;SDS011;44361;51.476;5.700;2023-04-09T06:14:34;57.17;;;23.88;;
58581;SDS011;44361;51.476;5.700;2023-04-09T06:17:00;51.97;;;22.85;;
58581;SDS011;44361;51.476;5.700;2023-04-09T06:19:25;50.13;;;23.83;;
58581;SDS011;44361;51.476;5.700;2023-04-09T06:21:51;51.28;;;22.65;;
58581;SDS011;44361;51.476;5.700;2023-04-09T06:24:16;51.15;;;22.95;;
58581;SDS011;44361;51.476;5.700;2023-04-09T06:26:42;53.58;;;23.25;;
58581;SDS011;44361;51.476;5.700;2023-04-09T06:29:07;44.83;;;22.27;;
58581;SDS011;44361;51.476;5.700;2023-04-09T06:31:33;46.45;;;21.10;;
58581;SDS011;44361;51.476;5.700;2023-04-09T06:33:58;49.53;;;22.95;;
58581;SDS011;44361;51.476;5.700;2023-04-09T06:36:24;46.80;;;21.77;;
58581;SDS011;44361;51.476;5.700;2023-04-09T06:38:51;47.33;;;22.25;;
58581;SDS011;44361;51.476;5.700;2023-04-09T06:41:19;51.00;;;22.08;;
58581;SDS011;44361;51.476;5.700;2023-04-09T06:43:45;48.90;;;21.85;;
58581;SDS011;44361;51.476;5.700;2023-04-09T06:46:11;45.63;;;21.45;;
58581;SDS011;44361;51.476;5.700;2023-04-09T06:48:38;47.50;;;21.80;;
58581;SDS011;44361;51.476;5.700;2023-04-09T06:51:06;43.58;;;22.00;;
58581;SDS011;44361;51.476;5.700;2023-04-09T06:53:31;47.50;;;23.35;;
58581;SDS011;44361;51.476;5.700;2023-04-09T06:55:57;52.72;;;22.88;;
58581;SDS011;44361;51.476;5.700;2023-04-09T06:58:22;46.58;;;23.05;;
58581;SDS011;44361;51.476;5.700;2023-04-09T07:00:48;47.80;;;21.63;;
58581;SDS011;44361;51.476;5.700;2023-04-09T07:03:13;44.75;;;21.98;;
58581;SDS011;44361;51.476;5.700;2023-04-09T07:05:39;43.78;;;22.15;;
58581;SDS011;44361;51.476;5.700;2023-04-09T07:08:05;46.65;;;21.98;;
58581;SDS011;44361;51.476;5.700;2023-04-09T07:10:31;49.50;;;22.38;;
58581;SDS011;44361;51.476;5.700;2023-04-09T07:12:56;42.90;;;20.25;;
58581;SDS011;44361;51.476;5.700;2023-04-09T07:15:22;46.33;;;24.20;;
58581;SDS011;44361;51.476;5.700;2023-04-09T07:17:47;44.78;;;22.38;;
58581;SDS011;44361;51.476;5.700;2023-04-09T07:20:13;43.05;;;21.88;;
58581;SDS011;44361;51.476;5.700;2023-04-09T07:22:38;47.53;;;22.10;;
58581;SDS011;44361;51.476;5.700;2023-04-09T07:25:04;45.00;;;21.70;;
58581;SDS011;44361;51.476;5.700;2023-04-09T07:27:30;41.15;;;22.23;;
58581;SDS011;44361;51.476;5.700;2023-04-09T07:29:56;39.30;;;21.17;;
58581;SDS011;44361;51.476;5.700;2023-04-09T07:32:23;38.25;;;21.60;;
58581;SDS011;44361;51.476;5.700;2023-04-09T07:34:50;39.35;;;22.02;;
58581;SDS011;44361;51.476;5.700;2023-04-09T07:37:17;38.63;;;20.52;;
58581;SDS011;44361;51.476;5.700;2023-04-09T07:39:42;39.45;;;21.00;;
58581;SDS011;44361;51.476;5.700;2023-04-09T07:42:08;40.97;;;21.52;;
58581;SDS011;44361;51.476;5.700;2023-04-09T07:44:34;43.38;;;21.75;;
58581;SDS011;44361;51.476;5.700;2023-04-09T07:47:03;42.17;;;20.42;;
58581;SDS011;44361;51.476;5.700;2023-04-09T07:49:30;42.35;;;22.02;;
58581;SDS011;44361;51.476;5.700;2023-04-09T07:51:57;38.33;;;19.90;;
58581;SDS011;44361;51.476;5.700;2023-04-09T07:54:23;36.83;;;20.15;;
58581;SDS011;44361;51.476;5.700;2023-04-09T07:56:49;39.10;;;22.08;;
58581;SDS011;44361;51.476;5.700;2023-04-09T07:59:15;37.72;;;19.90;;
58581;SDS011;44361;51.476;5.700;2023-04-09T08:01:41;34.20;;;20.10;;
58581;SDS011;44361;51.476;5.700;2023-04-09T08:04:07;37.22;;;20.73;;
58581;SDS011;44361;51.476;5.700;2023-04-09T08:06:34;35.17;;;19.23;;
58581;SDS011;44361;51.476;5.700;2023-04-09T08:09:00;37.65;;;20.60;;
58581;SDS011;44361;51.476;5.700;2023-04-09T08:11:26;40.17;;;20.98;;
58581;SDS011;44361;51.476;5.700;2023-04-09T08:13:52;40.38;;;21.42;;
58581;SDS011;44361;51.476;5.700;2023-04-09T08:16:18;40.55;;;22.15;;
58581;SDS011;44361;51.476;5.700;2023-04-09T08:18:51;42.65;;;21.88;;
58581;SDS011;44361;51.476;5.700;2023-04-09T08:21:17;37.05;;;21.02;;
58581;SDS011;44361;51.476;5.700;2023-04-09T08:23:43;38.15;;;20.85;;
58581;SDS011;44361;51.476;5.700;2023-04-09T08:26:10;35.05;;;19.75;;
58581;SDS011;44361;51.476;5.700;2023-04-09T08:28:35;41.75;;;21.67;;
58581;SDS011;44361;51.476;5.700;2023-04-09T08:31:01;36.25;;;21.33;;
58581;SDS011;44361;51.476;5.700;2023-04-09T08:33:27;38.30;;;21.08;;
58581;SDS011;44361;51.476;5.700;2023-04-09T08:35:53;35.58;;;20.10;;
58581;SDS011;44361;51.476;5.700;2023-04-09T08:38:19;39.15;;;20.15;;
58581;SDS011;44361;51.476;5.700;2023-04-09T08:40:45;36.10;;;20.52;;
58581;SDS011;44361;51.476;5.700;2023-04-09T08:43:13;33.33;;;18.65;;
58581;SDS011;44361;51.476;5.700;2023-04-09T08:45:40;35.72;;;19.45;;
58581;SDS011;44361;51.476;5.700;2023-04-09T08:48:08;31.45;;;18.63;;
58581;SDS011;44361;51.476;5.700;2023-04-09T08:50:57;33.28;;;18.50;;
58581;SDS011;44361;51.476;5.700;2023-04-09T08:53:22;35.38;;;19.05;;
58581;SDS011;44361;51.476;5.700;2023-04-09T08:55:49;33.42;;;18.73;;
58581;SDS011;44361;51.476;5.700;2023-04-09T08:58:15;33.95;;;18.33;;
58581;SDS011;44361;51.476;5.700;2023-04-09T09:00:41;31.73;;;18.10;;
58581;SDS011;44361;51.476;5.700;2023-04-09T09:03:07;34.13;;;18.05;;
58581;SDS011;44361;51.476;5.700;2023-04-09T09:05:40;30.33;;;17.67;;
58581;SDS011;44361;51.476;5.700;2023-04-09T09:08:08;31.90;;;17.10;;
58581;SDS011;44361;51.476;5.700;2023-04-09T09:10:36;26.60;;;16.38;;
58581;SDS011;44361;51.476;5.700;2023-04-09T09:15:48;31.45;;;16.85;;
58581;SDS011;44361;51.476;5.700;2023-04-09T09:18:39;27.17;;;16.08;;
58581;SDS011;44361;51.476;5.700;2023-04-09T09:21:13;28.67;;;16.30;;
58581;SDS011;44361;51.476;5.700;2023-04-09T09:23:41;29.63;;;16.67;;
58581;SDS011;44361;51.476;5.700;2023-04-09T09:26:14;22.45;;;13.70;;
58581;SDS011;44361;51.476;5.700;2023-04-09T09:28:41;24.35;;;15.25;;
58581;SDS011;44361;51.476;5.700;2023-04-09T09:31:10;30.45;;;16.73;;
58581;SDS011;44361;51.476;5.700;2023-04-09T09:33:37;25.02;;;14.98;;
58581;SDS011;44361;51.476;5.700;2023-04-09T09:36:03;23.75;;;14.18;;
58581;SDS011;44361;51.476;5.700;2023-04-09T09:38:29;26.70;;;15.70;;
58581;SDS011;44361;51.476;5.700;2023-04-09T09:40:55;22.70;;;13.77;;
58581;SDS011;44361;51.476;5.700;2023-04-09T09:43:21;21.58;;;13.00;;
58581;SDS011;44361;51.476;5.700;2023-04-09T09:45:46;23.73;;;14.40;;
58581;SDS011;44361;51.476;5.700;2023-04-09T09:48:12;19.70;;;11.88;;
58581;SDS011;44361;51.476;5.700;2023-04-09T09:50:39;21.25;;;12.07;;
58581;SDS011;44361;51.476;5.700;2023-04-09T09:53:08;23.25;;;12.38;;
58581;SDS011;44361;51.476;5.700;2023-04-09T09:55:39;18.80;;;11.73;;
58581;SDS011;44361;51.476;5.700;2023-04-09T09:58:18;18.95;;;12.00;;
58581;SDS011;44361;51.476;5.700;2023-04-09T10:00:48;18.88;;;11.75;;
58581;SDS011;44361;51.476;5.700;2023-04-09T10:03:20;20.52;;;11.88;;
58581;SDS011;44361;51.476;5.700;2023-04-09T10:05:53;18.98;;;11.88;;
58581;SDS011;44361;51.476;5.700;2023-04-09T10:08:20;19.55;;;11.02;;
58581;SDS011;44361;51.476;5.700;2023-04-09T10:10:46;15.95;;;9.52;;
58581;SDS011;44361;51.476;5.700;2023-04-09T10:13:15;18.42;;;11.13;;
58581;SDS011;44361;51.476;5.700;2023-04-09T10:15:45;18.45;;;10.23;;
58581;SDS011;44361;51.476;5.700;2023-04-09T10:18:12;17.60;;;10.25;;
58581;SDS011;44361;51.476;5.700;2023-04-09T10:20:40;15.73;;;9.43;;
58581;SDS011;44361;51.476;5.700;2023-04-09T10:23:38;16.00;;;9.52;;
58581;SDS011;44361;51.476;5.700;2023-04-09T10:26:06;15.80;;;8.90;;
58581;SDS011;44361;51.476;5.700;2023-04-09T10:28:32;16.48;;;9.52;;
58581;SDS011;44361;51.476;5.700;2023-04-09T10:30:58;13.90;;;8.27;;
58581;SDS011;44361;51.476;5.700;2023-04-09T10:33:25;15.82;;;8.13;;
58581;SDS011;44361;51.476;5.700;2023-04-09T10:35:58;14.82;;;8.38;;
58581;SDS011;44361;51.476;5.700;2023-04-09T10:38:38;12.90;;;7.87;;
58581;SDS011;44361;51.476;5.700;2023-04-09T10:41:06;12.23;;;7.93;;
58581;SDS011;44361;51.476;5.700;2023-04-09T10:43:34;12.98;;;7.63;;
58581;SDS011;44361;51.476;5.700;2023-04-09T10:46:00;13.20;;;7.30;;
58581;SDS011;44361;51.476;5.700;2023-04-09T10:48:31;11.30;;;7.03;;
58581;SDS011;44361;51.476;5.700;2023-04-09T10:50:58;12.85;;;7.38;;
58581;SDS011;44361;51.476;5.700;2023-04-09T10:53:26;11.10;;;7.45;;
58581;SDS011;44361;51.476;5.700;2023-04-09T10:55:52;13.25;;;7.15;;
58581;SDS011;44361;51.476;5.700;2023-04-09T10:58:18;13.75;;;7.35;;
58581;SDS011;44361;51.476;5.700;2023-04-09T11:00:45;13.63;;;6.65;;
58581;SDS011;44361;51.476;5.700;2023-04-09T11:05:49;13.30;;;7.47;;
58581;SDS011;44361;51.476;5.700;2023-04-09T11:08:16;12.10;;;6.75;;
58581;SDS011;44361;51.476;5.700;2023-04-09T11:10:43;12.52;;;7.30;;
58581;SDS011;44361;51.476;5.700;2023-04-09T11:13:12;11.48;;;6.50;;
58581;SDS011;44361;51.476;5.700;2023-04-09T11:15:38;9.32;;;6.13;;
58581;SDS011;44361;51.476;5.700;2023-04-09T11:18:04;10.60;;;6.72;;
58581;SDS011;44361;51.476;5.700;2023-04-09T11:20:39;13.20;;;6.80;;
58581;SDS011;44361;51.476;5.700;2023-04-09T11:23:05;10.50;;;7.22;;
58581;SDS011;44361;51.476;5.700;2023-04-09T11:25:31;8.57;;;5.93;;
58581;SDS011;44361;51.476;5.700;2023-04-09T11:27:58;10.50;;;6.25;;
58581;SDS011;44361;51.476;5.700;2023-04-09T11:30:24;10.35;;;6.07;;
58581;SDS011;44361;51.476;5.700;2023-04-09T11:32:50;12.38;;;6.75;;
58581;SDS011;44361;51.476;5.700;2023-04-09T11:35:16;11.38;;;6.72;;
58581;SDS011;44361;51.476;5.700;2023-04-09T11:37:43;12.05;;;6.65;;
58581;SDS011;44361;51.476;5.700;2023-04-09T11:40:28;11.15;;;6.13;;
58581;SDS011;44361;51.476;5.700;2023-04-09T11:42:54;9.27;;;5.43;;
58581;SDS011;44361;51.476;5.700;2023-04-09T11:45:21;8.27;;;5.47;;
58581;SDS011;44361;51.476;5.700;2023-04-09T11:47:49;9.32;;;5.50;;
58581;SDS011;44361;51.476;5.700;2023-04-09T11:50:15;10.02;;;6.05;;
58581;SDS011;44361;51.476;5.700;2023-04-09T11:52:41;9.48;;;5.78;;
58581;SDS011;44361;51.476;5.700;2023-04-09T11:55:08;10.52;;;5.82;;
58581;SDS011;44361;51.476;5.700;2023-04-09T11:57:41;11.20;;;5.90;;
58581;SDS011;44361;51.476;5.700;2023-04-09T12:00:14;9.60;;;5.85;;
58581;SDS011;44361;51.476;5.700;2023-04-09T12:02:41;9.10;;;5.63;;
58581;SDS011;44361;51.476;5.700;2023-04-09T12:05:12;9.95;;;6.25;;
58581;SDS011;44361;51.476;5.700;2023-04-09T12:10:11;9.52;;;6.28;;
58581;SDS011;44361;51.476;5.700;2023-04-09T12:12:41;11.27;;;6.22;;
58581;SDS011;44361;51.476;5.700;2023-04-09T12:15:20;10.88;;;6.13;;
58581;SDS011;44361;51.476;5.700;2023-04-09T12:17:50;7.88;;;5.30;;
58581;SDS011;44361;51.476;5.700;2023-04-09T12:20:31;8.73;;;5.53;;
58581;SDS011;44361;51.476;5.700;2023-04-09T12:23:03;9.55;;;5.75;;
58581;SDS011;44361;51.476;5.700;2023-04-09T12:25:30;10.70;;;5.75;;
58581;SDS011;44361;51.476;5.700;2023-04-09T12:27:59;8.27;;;4.95;;
58581;SDS011;44361;51.476;5.700;2023-04-09T12:30:25;9.65;;;5.72;;
58581;SDS011;44361;51.476;5.700;2023-04-09T12:32:51;9.40;;;5.57;;
58581;SDS011;44361;51.476;5.700;2023-04-09T12:35:18;9.85;;;5.97;;
58581;SDS011;44361;51.476;5.700;2023-04-09T12:37:44;9.55;;;6.03;;
58581;SDS011;44361;51.476;5.700;2023-04-09T12:40:11;10.13;;;5.85;;
58581;SDS011;44361;51.476;5.700;2023-04-09T12:42:40;9.10;;;6.07;;
58581;SDS011;44361;51.476;5.700;2023-04-09T12:45:07;10.90;;;5.85;;
58581;SDS011;44361;51.476;5.700;2023-04-09T12:47:36;10.75;;;6.53;;
58581;SDS011;44361;51.476;5.700;2023-04-09T12:50:03;12.13;;;6.13;;
58581;SDS011;44361;51.476;5.700;2023-04-09T12:52:29;11.60;;;6.93;;
58581;SDS011;44361;51.476;5.700;2023-04-09T12:54:55;12.73;;;6.85;;
58581;SDS011;44361;51.476;5.700;2023-04-09T12:57:21;11.65;;;6.93;;
58581;SDS011;44361;51.476;5.700;2023-04-09T12:59:46;8.55;;;5.50;;
58581;SDS011;44361;51.476;5.700;2023-04-09T13:02:12;9.68;;;5.68;;
58581;SDS011;44361;51.476;5.700;2023-04-09T13:04:37;12.18;;;6.70;;
58581;SDS011;44361;51.476;5.700;2023-04-09T13:07:03;11.27;;;6.72;;
58581;SDS011;44361;51.476;5.700;2023-04-09T13:09:28;8.18;;;5.10;;
58581;SDS011;44361;51.476;5.700;2023-04-09T13:11:54;9.13;;;5.65;;
58581;SDS011;44361;51.476;5.700;2023-04-09T13:14:20;10.30;;;5.72;;
58581;SDS011;44361;51.476;5.700;2023-04-09T13:16:45;9.70;;;6.13;;
58581;SDS011;44361;51.476;5.700;2023-04-09T13:19:11;10.15;;;6.28;;
58581;SDS011;44361;51.476;5.700;2023-04-09T13:21:37;8.63;;;5.85;;
58581;SDS011;44361;51.476;5.700;2023-04-09T13:24:03;9.07;;;6.05;;
58581;SDS011;44361;51.476;5.700;2023-04-09T13:26:29;8.13;;;5.30;;
58581;SDS011;44361;51.476;5.700;2023-04-09T13:28:55;10.88;;;6.00;;
58581;SDS011;44361;51.476;5.700;2023-04-09T13:31:20;10.40;;;5.72;;
58581;SDS011;44361;51.476;5.700;2023-04-09T13:33:46;9.02;;;5.63;;
58581;SDS011;44361;51.476;5.700;2023-04-09T13:36:12;8.93;;;5.70;;
58581;SDS011;44361;51.476;5.700;2023-04-09T13:38:37;10.90;;;6.25;;
58581;SDS011;44361;51.476;5.700;2023-04-09T13:41:03;10.27;;;5.97;;
58581;SDS011;44361;51.476;5.700;2023-04-09T13:43:30;10.00;;;6.38;;
58581;SDS011;44361;51.476;5.700;2023-04-09T13:45:55;10.35;;;6.28;;
58581;SDS011;44361;51.476;5.700;2023-04-09T13:48:22;8.77;;;5.05;;
58581;SDS011;44361;51.476;5.700;2023-04-09T13:50:48;7.63;;;5.47;;
58581;SDS011;44361;51.476;5.700;2023-04-09T13:53:13;9.80;;;5.55;;
58581;SDS011;44361;51.476;5.700;2023-04-09T13:55:40;8.77;;;5.45;;
58581;SDS011;44361;51.476;5.700;2023-04-09T13:58:05;8.68;;;5.43;;
58581;SDS011;44361;51.476;5.700;2023-04-09T14:00:31;9.73;;;5.75;;
58581;SDS011;44361;51.476;5.700;2023-04-09T14:02:57;8.57;;;5.32;;
58581;SDS011;44361;51.476;5.700;2023-04-09T14:05:22;8.68;;;5.22;;
58581;SDS011;44361;51.476;5.700;2023-04-09T14:07:48;6.72;;;4.88;;
58581;SDS011;44361;51.476;5.700;2023-04-09T14:10:14;8.18;;;5.40;;
58581;SDS011;44361;51.476;5.700;2023-04-09T14:12:39;8.65;;;5.53;;
58581;SDS011;44361;51.476;5.700;2023-04-09T14:15:05;11.23;;;6.38;;
58581;SDS011;44361;51.476;5.700;2023-04-09T14:17:32;8.00;;;4.90;;
58581;SDS011;44361;51.476;5.700;2023-04-09T14:19:57;8.48;;;4.70;;
58581;SDS011;44361;51.476;5.700;2023-04-09T14:22:23;7.38;;;4.72;;
58581;SDS011;44361;51.476;5.700;2023-04-09T14:24:50;7.57;;;4.70;;
58581;SDS011;44361;51.476;5.700;2023-04-09T14:27:16;8.60;;;5.80;;
58581;SDS011;44361;51.476;5.700;2023-04-09T14:29:41;6.55;;;4.45;;
58581;SDS011;44361;51.476;5.700;2023-04-09T14:32:07;7.28;;;4.35;;
58581;SDS011;44361;51.476;5.700;2023-04-09T14:34:32;6.53;;;4.00;;
58581;SDS011;44361;51.476;5.700;2023-04-09T14:36:58;6.97;;;4.32;;
58581;SDS011;44361;51.476;5.700;2023-04-09T14:39:24;6.55;;;3.90;;
58581;SDS011;44361;51.476;5.700;2023-04-09T14:41:49;6.40;;;4.18;;
58581;SDS011;44361;51.476;5.700;2023-04-09T14:44:15;5.72;;;3.58;;
58581;SDS011;44361;51.476;5.700;2023-04-09T14:46:41;6.93;;;4.40;;